Flight Track Log - Related Links

Times and Time Zones

All times are in EST time to prevent confusion due to time zone crossing. See the BJS339 flight status page for this flight to view local times or setup timezone preferences in your user account.

Time Position Orientation Groundspeed Altitude Reporting Facility
EST Latitude Longitude Course Direction KTS MPH feet Rate Location/Type
Mon 03:49:35 PM 20.9000 -156.4167 360° North 150 173 1,100  Level Honolulu Center
Mon 03:50:35 PM 20.9667 -156.4167 360° North 210 242 3,700 2,800 Climbing Honolulu Center
Mon 03:51:35 PM 21.0333 -156.4167 360° North 260 299 6,700 3,100 Climbing Honolulu Center
Mon 03:52:35 PM 21.1000 -156.4167 360° North 270 311 9,900 3,200 Climbing Honolulu Center
Mon 03:53:35 PM 21.1833 -156.4167 360° North 280 322 13,100 2,850 Climbing Honolulu Center
Mon 03:54:35 PM 21.2667 -156.4167 360° North 290 334 15,600 2,331 Climbing Honolulu Center
Mon 03:55:36 PM 21.3500 -156.4167 360° North 300 345 17,800 2,083 Climbing Honolulu Center
Mon 03:56:36 PM 21.4333 -156.4167 360° North 320 368 19,800 2,050 Climbing Honolulu Center
Mon 03:57:36 PM 21.5333 -156.4167 360° North 320 368 21,900 2,000 Climbing Honolulu Center
Mon 03:58:36 PM 21.6167 -156.4167 360° North 330 380 23,800 1,650 Climbing Honolulu Center
Mon 03:59:36 PM 21.7167 -156.4167 360° North 330 380 25,200 1,450 Climbing Honolulu Center
Mon 04:00:36 PM 21.8000 -156.4167 360° North 340 391 26,700 1,550 Climbing Honolulu Center
Mon 04:01:36 PM 21.9000 -156.4167 360° North 340 391 28,300 1,450 Climbing Honolulu Center
Mon 04:02:36 PM 22.0000 -156.4167 360° North 350 403 29,600 1,450 Climbing Honolulu Center
Mon 04:03:36 PM 22.1000 -156.4167 360° North 330 380 31,200 1,488 Climbing Honolulu Center
Mon 04:04:37 PM 22.1833 -156.4167 360° North 320 368 32,600 1,289 Climbing Honolulu Center
Mon 04:05:37 PM 22.2667 -156.4167 360° North 300 345 33,800 800 Climbing Honolulu Center
Mon 04:06:37 PM 22.3500 -156.4167 360° North 310 357 34,200 400 Climbing Honolulu Center
Mon 04:07:37 PM 22.4500 -156.4167 360° North 310 357 34,600 400 Climbing Honolulu Center
Mon 04:08:37 PM 22.5333 -156.4167 360° North 310 357 35,000 400 Climbing Honolulu Center
Mon 04:09:37 PM 22.6167 -156.4167 360° North 320 368 35,400 400 Climbing Honolulu Center
Mon 04:10:37 PM 22.7167 -156.4167 360° North 320 368 35,800 400 Climbing Honolulu Center
Mon 04:11:37 PM 22.8000 -156.4167 360° North 320 368 36,200 400 Climbing Honolulu Center
Mon 04:12:37 PM 22.8833 -156.4167 360° North 320 368 36,600 397 Climbing Honolulu Center
Mon 04:13:38 PM 22.9833 -156.4167 360° North 320 368 37,000 198 Climbing Honolulu Center
Mon 04:14:38 PM 23.0667 -156.4167 360° North 320 368 37,000  Level Honolulu Center
Mon 04:15:38 PM 23.1667 -156.4167 360° North 340 391 37,000  Level Honolulu Center
Mon 04:16:38 PM 23.2500 -156.4167 360° North 330 380 37,000  Level Honolulu Center
Mon 04:17:38 PM 23.3333 -156.4167 360° North 350 403 37,000  Level Honolulu Center
Mon 04:18:38 PM 23.4333 -156.4167 360° North 340 391 37,000  Level Honolulu Center
Mon 04:19:38 PM 23.5333 -156.4000 North 350 403 37,000  Level Honolulu Center
Mon 04:20:38 PM 23.6333 -156.4167 351° North 350 403 37,000  Level Honolulu Center
Mon 04:21:39 PM 23.7167 -156.4167 360° North 350 403 37,000  Level Honolulu Center
Mon 04:22:38 PM 23.8167 -156.4167 360° North 350 403 37,000  Level Honolulu Center
Mon 04:23:38 PM 23.9167 -156.4167 360° North 350 403 37,000  Level Honolulu Center
Mon 04:24:39 PM 24.0167 -156.4167 360° North 360 414 37,000  Level Honolulu Center
Mon 04:25:39 PM 24.1167 -156.4167 360° North 350 403 37,000  Level Honolulu Center
Mon 04:26:39 PM 24.2167 -156.4167 360° North 360 414 37,000  Level Honolulu Center
Mon 04:27:39 PM 24.3167 -156.4167 360° North 340 391 37,000  Level Honolulu Center
Mon 04:42:25 PM 25.2000 -156.4167 42° Northeast 418 481 37,000  Level Oakland Oceanic (ODAPS)
Mon 04:43:00 PM 25.9067 -155.7091 42° Northeast  Level FlightAware Approximate
Mon 04:44:00 PM 25.9947 -155.6199 42° Northeast  Level FlightAware Approximate
Mon 04:45:00 PM 26.0827 -155.5306 42° Northeast  Level FlightAware Approximate
Mon 04:46:00 PM 26.1707 -155.4411 42° Northeast  Level FlightAware Approximate
Mon 04:47:00 PM 26.2586 -155.3514 42° Northeast  Level FlightAware Approximate
Mon 04:48:00 PM 26.2362 -155.3772 42° Northeast 418 481 37,000  Level FlightAware Transoceanic
Mon 04:49:00 PM 26.3222 -155.2898 42° Northeast 418 481 37,000  Level FlightAware Transoceanic
Mon 04:50:00 PM 26.4082 -155.2022 42° Northeast 418 481 37,000  Level FlightAware Transoceanic
Mon 04:51:00 PM 26.4941 -155.1145 42° Northeast 418 481 37,000  Level FlightAware Transoceanic
Mon 04:52:00 PM 26.5799 -155.0267 42° Northeast 418 481 37,000  Level FlightAware Transoceanic
Mon 04:53:00 PM 26.6657 -154.9387 43° Northeast 418 481 37,000  Level FlightAware Transoceanic
Mon 04:54:00 PM 26.7515 -154.8506 43° Northeast 418 481 37,000  Level FlightAware Transoceanic
Mon 04:55:00 PM 26.8372 -154.7623 43° Northeast 418 481 37,000  Level FlightAware Transoceanic
Mon 04:56:00 PM 26.9228 -154.6740 43° Northeast 418 481 37,000  Level FlightAware Transoceanic
Mon 04:57:00 PM 27.0084 -154.5855 43° Northeast 418 481 37,000  Level FlightAware Transoceanic
Mon 04:58:00 PM 27.0939 -154.4968 43° Northeast 418 481 37,000  Level FlightAware Transoceanic
Mon 04:59:00 PM 27.1794 -154.4081 43° Northeast 418 481 37,000  Level FlightAware Transoceanic
Mon 05:00:00 PM 27.2648 -154.3191 43° Northeast 418 481 37,000  Level FlightAware Transoceanic
Mon 05:01:00 PM 27.3502 -154.2301 43° Northeast 418 481 37,000  Level FlightAware Transoceanic
Mon 05:02:00 PM 27.4355 -154.1409 43° Northeast 418 481 37,000  Level FlightAware Transoceanic
Mon 05:03:00 PM 27.5207 -154.0516 43° Northeast 418 481 37,000  Level FlightAware Transoceanic
Mon 05:04:00 PM 27.6059 -153.9621 43° Northeast 418 481 37,000  Level FlightAware Transoceanic
Mon 05:05:00 PM 27.6910 -153.8725 43° Northeast 418 481 37,000  Level FlightAware Transoceanic
Mon 05:06:00 PM 27.7761 -153.7828 43° Northeast 418 481 37,000  Level FlightAware Transoceanic
Mon 05:07:00 PM 27.8611 -153.6929 43° Northeast 418 481 37,000  Level FlightAware Transoceanic
Mon 05:08:00 PM 27.9461 -153.6029 43° Northeast 418 481 37,000  Level FlightAware Transoceanic
Mon 05:09:00 PM 28.0310 -153.5127 43° Northeast 418 481 37,000  Level FlightAware Transoceanic
Mon 05:10:00 PM 28.1158 -153.4224 43° Northeast 418 481 37,000  Level FlightAware Transoceanic
Mon 05:11:00 PM 28.2006 -153.3320 43° Northeast 418 481 37,000  Level FlightAware Transoceanic
Mon 05:12:00 PM 28.2853 -153.2414 43° Northeast 418 481 37,000  Level FlightAware Transoceanic
Mon 05:13:00 PM 28.3699 -153.1507 43° Northeast 418 481 37,000  Level FlightAware Transoceanic
Mon 05:14:00 PM 28.4545 -153.0598 43° Northeast 418 481 37,000  Level FlightAware Transoceanic
Mon 05:15:00 PM 28.5391 -152.9687 43° Northeast 418 481 37,000  Level FlightAware Transoceanic
Mon 05:16:00 PM 28.6236 -152.8776 43° Northeast 418 481 37,000  Level FlightAware Transoceanic
Mon 05:17:00 PM 28.7080 -152.7863 44° Northeast 418 481 37,000  Level FlightAware Transoceanic
Mon 05:18:00 PM 28.7923 -152.6948 44° Northeast 418 481 37,000  Level FlightAware Transoceanic
Mon 05:19:00 PM 28.8766 -152.6032 44° Northeast 418 481 37,000  Level FlightAware Transoceanic
Mon 05:20:00 PM 28.9609 -152.5114 44° Northeast 418 481 37,000  Level FlightAware Transoceanic
Mon 05:21:00 PM 29.0450 -152.4195 44° Northeast 418 481 37,000  Level FlightAware Transoceanic
Mon 05:22:00 PM 29.1291 -152.3274 44° Northeast 418 481 37,000  Level FlightAware Transoceanic
Mon 05:23:00 PM 29.2132 -152.2352 44° Northeast 418 481 37,000  Level FlightAware Transoceanic
Mon 05:24:00 PM 29.2972 -152.1429 44° Northeast 418 481 37,000  Level FlightAware Transoceanic
Mon 05:25:00 PM 29.3811 -152.0503 44° Northeast 418 481 37,000  Level FlightAware Transoceanic
Mon 05:26:00 PM 29.4649 -151.9577 44° Northeast 418 481 37,000  Level FlightAware Transoceanic
Mon 05:27:00 PM 29.5487 -151.8649 44° Northeast 418 481 37,000  Level FlightAware Transoceanic
Mon 05:28:00 PM 29.6324 -151.7719 44° Northeast 418 481 37,000  Level FlightAware Transoceanic
Mon 05:29:00 PM 29.7161 -151.6787 44° Northeast 418 481 37,000  Level FlightAware Transoceanic
Mon 05:30:00 PM 29.7997 -151.5854 44° Northeast 418 481 37,000  Level FlightAware Transoceanic
Mon 05:31:00 PM 29.8832 -151.4920 44° Northeast 418 481 37,000  Level FlightAware Transoceanic
Mon 05:32:00 PM 29.9667 -151.3984 44° Northeast 418 481 37,000  Level FlightAware Transoceanic
Mon 05:33:00 PM 30.0501 -151.3047 44° Northeast 418 481 37,000  Level FlightAware Transoceanic
Mon 05:34:00 PM 30.1334 -151.2107 44° Northeast 418 481 37,000  Level FlightAware Transoceanic
Mon 05:35:00 PM 30.2167 -151.1167 44° Northeast 418 481 37,000  Level FlightAware Transoceanic
Mon 05:36:00 PM 30.3028 -151.0190 44° Northeast 418 481 37,000  Level FlightAware Transoceanic
Mon 05:37:00 PM 30.3889 -150.9211 44° Northeast 418 481 37,000  Level FlightAware Transoceanic
Mon 05:38:00 PM 30.4749 -150.8230 45° Northeast 418 481 37,000  Level FlightAware Transoceanic
Mon 05:39:00 PM 30.5609 -150.7248 45° Northeast 418 481 37,000  Level FlightAware Transoceanic
Mon 05:40:00 PM 30.6467 -150.6264 45° Northeast 418 481 37,000  Level FlightAware Transoceanic
Mon 05:41:00 PM 30.7325 -150.5278 45° Northeast 418 481 37,000  Level FlightAware Transoceanic
Mon 05:42:00 PM 30.8183 -150.4290 45° Northeast 418 481 37,000  Level FlightAware Transoceanic
Mon 05:43:00 PM 30.9039 -150.3301 45° Northeast 418 481 37,000  Level FlightAware Transoceanic
Mon 05:44:00 PM 30.9895 -150.2310 45° Northeast 418 481 37,000 1,622 Level FlightAware Transoceanic
Mon 05:44:14 PM 30.2167 -151.1167 44° Northeast 427 491 39,000 35 Climbing Oakland Oceanic (ODAPS)
Mon 06:41:46 PM 35.0000 -145.2500 48° Northeast 445 512 39,000  Level Oakland Oceanic (ODAPS)
Mon 06:42:00 PM 35.3502 -144.7784 48° Northeast 427 491 39,000  Level FlightAware Transoceanic
Mon 06:43:00 PM 35.4375 -144.6598 48° Northeast 427 491 39,000  Level FlightAware Transoceanic
Mon 06:44:00 PM 35.5247 -144.5410 48° Northeast 427 491 39,000  Level FlightAware Transoceanic
Mon 06:45:00 PM 35.6117 -144.4220 48° Northeast 427 491 39,000  Level FlightAware Transoceanic
Mon 06:46:00 PM 35.6986 -144.3026 48° Northeast 427 491 39,000  Level FlightAware Transoceanic
Mon 06:47:00 PM 35.7854 -144.1831 48° Northeast 427 491 39,000  Level FlightAware Transoceanic
Mon 06:48:00 PM 35.7464 -144.2369 48° Northeast 445 512 39,000  Level FlightAware Transoceanic
Mon 06:49:00 PM 35.8288 -144.1232 48° Northeast 445 512 39,000  Level FlightAware Transoceanic
Mon 06:50:00 PM 35.9111 -144.0092 48° Northeast 445 512 39,000  Level FlightAware Transoceanic
Mon 06:51:00 PM 35.9933 -143.8950 48° Northeast 445 512 39,000  Level FlightAware Transoceanic
Mon 06:52:00 PM 36.0753 -143.7806 48° Northeast 445 512 39,000  Level FlightAware Transoceanic
Mon 06:53:00 PM 36.1573 -143.6659 49° Northeast 445 512 39,000  Level FlightAware Transoceanic
Mon 06:54:00 PM 36.2392 -143.5510 49° Northeast 445 512 39,000  Level FlightAware Transoceanic
Mon 06:55:00 PM 36.3209 -143.4358 49° Northeast 445 512 39,000  Level FlightAware Transoceanic
Mon 06:56:00 PM 36.4026 -143.3204 49° Northeast 445 512 39,000  Level FlightAware Transoceanic
Mon 06:57:00 PM 36.4841 -143.2048 49° Northeast 445 512 39,000  Level FlightAware Transoceanic
Mon 06:58:00 PM 36.5655 -143.0889 49° Northeast 445 512 39,000  Level FlightAware Transoceanic
Mon 06:59:00 PM 36.6468 -142.9727 49° Northeast 445 512 39,000  Level FlightAware Transoceanic
Mon 07:00:00 PM 36.7280 -142.8564 49° Northeast 445 512 39,000  Level FlightAware Transoceanic
Mon 07:01:00 PM 36.8091 -142.7397 49° Northeast 445 512 39,000  Level FlightAware Transoceanic
Mon 07:02:00 PM 36.8900 -142.6229 49° Northeast 445 512 39,000  Level FlightAware Transoceanic
Mon 07:03:00 PM 36.9709 -142.5058 49° Northeast 445 512 39,000  Level FlightAware Transoceanic
Mon 07:04:00 PM 37.0516 -142.3884 49° Northeast 445 512 39,000  Level FlightAware Transoceanic
Mon 07:05:00 PM 37.1323 -142.2708 49° Northeast 445 512 39,000  Level FlightAware Transoceanic
Mon 07:06:00 PM 37.2128 -142.1529 49° Northeast 445 512 39,000  Level FlightAware Transoceanic
Mon 07:07:00 PM 37.2931 -142.0348 50° Northeast 445 512 39,000  Level FlightAware Transoceanic
Mon 07:08:00 PM 37.3734 -141.9164 50° Northeast 445 512 39,000  Level FlightAware Transoceanic
Mon 07:09:00 PM 37.4536 -141.7978 50° Northeast 445 512 39,000  Level FlightAware Transoceanic
Mon 07:10:00 PM 37.5336 -141.6789 50° Northeast 445 512 39,000  Level FlightAware Transoceanic
Mon 07:11:00 PM 37.6135 -141.5598 50° Northeast 445 512 39,000  Level FlightAware Transoceanic
Mon 07:12:00 PM 37.6933 -141.4404 50° Northeast 445 512 39,000  Level FlightAware Transoceanic
Mon 07:13:00 PM 37.7730 -141.3207 50° Northeast 445 512 39,000  Level FlightAware Transoceanic
Mon 07:14:00 PM 37.8525 -141.2008 50° Northeast 445 512 39,000  Level FlightAware Transoceanic
Mon 07:15:00 PM 37.9319 -141.0806 50° Northeast 445 512 39,000  Level FlightAware Transoceanic
Mon 07:16:00 PM 38.0112 -140.9602 50° Northeast 445 512 39,000  Level FlightAware Transoceanic
Mon 07:17:00 PM 38.0904 -140.8395 50° Northeast 445 512 39,000  Level FlightAware Transoceanic
Mon 07:18:00 PM 38.1695 -140.7186 50° Northeast 445 512 39,000  Level FlightAware Transoceanic
Mon 07:19:00 PM 38.2484 -140.5974 50° Northeast 445 512 39,000  Level FlightAware Transoceanic
Mon 07:20:00 PM 38.3272 -140.4759 50° Northeast 445 512 39,000  Level FlightAware Transoceanic
Mon 07:21:00 PM 38.4059 -140.3542 51° Northeast 445 512 39,000  Level FlightAware Transoceanic
Mon 07:22:00 PM 38.4845 -140.2321 51° Northeast 445 512 39,000  Level FlightAware Transoceanic
Mon 07:23:00 PM 38.5629 -140.1099 51° Northeast 445 512 39,000  Level FlightAware Transoceanic
Mon 07:24:00 PM 38.6412 -139.9874 51° Northeast 445 512 39,000  Level FlightAware Transoceanic
Mon 07:25:00 PM 38.7194 -139.8645 51° Northeast 445 512 39,000  Level FlightAware Transoceanic
Mon 07:26:00 PM 38.7974 -139.7415 51° Northeast 445 512 39,000  Level FlightAware Transoceanic
Mon 07:27:00 PM 38.8753 -139.6181 51° Northeast 445 512 39,000  Level FlightAware Transoceanic
Mon 07:28:00 PM 38.9531 -139.4945 51° Northeast 445 512 39,000  Level FlightAware Transoceanic
Mon 07:29:00 PM 39.0308 -139.3706 51° Northeast 445 512 39,000  Level FlightAware Transoceanic
Mon 07:30:00 PM 39.1083 -139.2465 51° Northeast 445 512 39,000  Level FlightAware Transoceanic
Mon 07:31:00 PM 39.1857 -139.1221 51° Northeast 445 512 39,000  Level FlightAware Transoceanic
Mon 07:32:00 PM 39.2630 -138.9973 51° Northeast 445 512 39,000  Level FlightAware Transoceanic
Mon 07:33:00 PM 39.3401 -138.8724 51° Northeast 445 512 39,000  Level FlightAware Transoceanic
Mon 07:34:00 PM 39.4171 -138.7471 52° Northeast 445 512 39,000  Level FlightAware Transoceanic
Mon 07:35:00 PM 39.4939 -138.6216 52° Northeast 445 512 39,000  Level FlightAware Transoceanic
Mon 07:36:00 PM 39.5706 -138.4958 52° Northeast 445 512 39,000  Level FlightAware Transoceanic
Mon 07:37:00 PM 39.6472 -138.3697 52° Northeast 445 512 39,000  Level FlightAware Transoceanic
Mon 07:38:00 PM 39.7237 -138.2433 52° Northeast 445 512 39,000  Level FlightAware Transoceanic
Mon 07:39:00 PM 39.8000 -138.1167 52° Northeast 445 512 39,000  Level FlightAware Transoceanic
Mon 07:40:00 PM 39.8816 -137.9808 52° Northeast 445 512 39,000  Level FlightAware Transoceanic
Mon 07:41:00 PM 39.9630 -137.8447 52° Northeast 445 512 39,000  Level FlightAware Transoceanic
Mon 07:42:00 PM 40.0443 -137.7082 52° Northeast 445 512 39,000  Level FlightAware Transoceanic
Mon 07:42:02 PM 39.8000 -138.1167 52° Northeast 461 531 39,000 37 Level Oakland Oceanic (ODAPS)
Mon 08:36:29 PM 44.1000 -129.9833 58° Northeast 543 625 41,000 30 Climbing Oakland Oceanic (ODAPS)
Mon 08:47:47 PM 45.1406 -127.5989 50° Northeast 494 568 41,000  Level Seattle Center
Mon 08:48:00 PM 45.1970 -127.4563 60° Northeast 543 625 41,000  Level FlightAware Transoceanic
Mon 08:48:48 PM 45.2089 -127.4314 60° Northeast 496 571 41,000  Level Seattle Center
Mon 08:49:00 PM 45.2732 -127.2722 60° Northeast 543 625 41,000  Level FlightAware Transoceanic
Mon 08:49:49 PM 45.2894 -127.2608 56° Northeast 509 586 41,000  Level Seattle Center
Mon 08:50:00 PM 45.3491 -127.0875 60° Northeast 543 625 41,000  Level FlightAware Transoceanic
Mon 08:50:50 PM 45.3531 -127.0947 61° Northeast 496 571 41,000  Level Seattle Center
Mon 08:51:00 PM 45.4247 -126.9023 60° Northeast 543 625 41,000  Level FlightAware Transoceanic
Mon 08:51:51 PM 45.4189 -126.9267 61° Northeast 496 571 41,000  Level Seattle Center
Mon 08:52:00 PM 45.5000 -126.7167 50° Northeast 543 625 41,000  Level FlightAware Transoceanic
Mon 08:52:52 PM 45.4856 -126.7600 60° Northeast 490 564 41,000  Level Seattle Center
Mon 08:53:52 PM 45.5694 -126.6092 52° Northeast 496 571 41,000  Level Seattle Center
Mon 08:54:53 PM 45.6664 -126.4819 43° Northeast 476 548 41,000  Level Seattle Center
Mon 08:55:54 PM 45.7692 -126.3633 39° Northeast 474 545 41,000  Level Seattle Center
Mon 08:56:55 PM 45.8675 -126.2481 39° Northeast 464 534 41,000  Level Seattle Center
Mon 08:57:56 PM 45.9694 -126.1319 38° Northeast 465 535 41,000  Level Seattle Center
Mon 08:58:57 PM 46.0722 -126.0147 38° Northeast 469 540 41,000  Level Seattle Center
Mon 09:00:01 PM 46.1953 -125.8728 39° Northeast 472 543 41,000  Level Seattle Center
Mon 09:01:02 PM 46.2986 -125.7539 38° Northeast 475 547 41,000  Level Seattle Center
Mon 09:02:03 PM 46.4031 -125.6314 39° Northeast 475 547 41,000  Level Seattle Center
Mon 09:03:03 PM 46.5050 -125.5133 39° Northeast 473 544 41,000  Level Seattle Center
Mon 09:04:04 PM 46.6072 -125.3922 39° Northeast 477 549 41,000  Level Seattle Center
Mon 09:05:05 PM 46.7094 -125.2733 39° Northeast 474 545 41,000  Level Seattle Center
Mon 09:06:06 PM 46.8114 -125.1553 38° Northeast 472 543 41,000  Level Seattle Center
Mon 09:07:07 PM 46.9119 -125.0325 40° Northeast 472 543 41,000  Level Seattle Center
Mon 09:08:08 PM 47.0131 -124.9103 39° Northeast 473 544 41,000  Level Seattle Center
Mon 09:09:08 PM 47.1136 -124.7903 39° Northeast 471 542 41,000 -298 Level Seattle Center
Mon 09:10:09 PM 47.2133 -124.6697 39° Northeast 467 537 40,400 -1,230 Descending Seattle Center
Mon 09:11:10 PM 47.3144 -124.5447 40° Northeast 474 545 38,500 -2,754 Descending Seattle Center
Mon 09:12:11 PM 47.4369 -124.4022 38° Northeast 472 543 34,800 -3,541 Descending Seattle Center
Mon 09:13:12 PM 47.5450 -124.3203 27° Northeast 447 514 31,300 -3,471 Descending Seattle Center
Mon 09:14:12 PM 47.6497 -124.2347 29° Northeast 435 501 27,800 -3,471 Descending Seattle Center
Mon 09:15:13 PM 47.7508 -124.1550 28° Northeast 421 484 24,300 -3,197 Descending Seattle Center
Mon 09:16:14 PM 47.8419 -124.0811 29° Northeast 387 445 21,300 -2,852 Descending Seattle Center
Mon 09:17:15 PM 47.9331 -124.0092 28° Northeast 375 432 18,500 -2,705 Descending Seattle Center
Mon 09:18:16 PM 48.0211 -123.9392 28° Northeast 365 420 15,800 -2,803 Descending Seattle Center
Mon 09:19:17 PM 48.1058 -123.8561 33° Northeast 372 428 12,800 -3,146 Descending Seattle Center
Mon 09:19:59 PM 48.1500 -123.7667 53° Northeast 370 426 10,400 -1,647 Descending Vancouver Center
Mon 09:20:59 PM 48.2167 -123.6667 45° Northeast 350 403 10,000 -400 Descending Vancouver Center
Mon 09:21:59 PM 48.2833 -123.5667 45° Northeast 330 380 9,600 -1,250 Descending Vancouver Center
Mon 09:22:59 PM 48.3333 -123.5000 42° Northeast 280 322 7,500 -2,000 Descending Vancouver Center
Mon 09:23:59 PM 48.3833 -123.4167 48° Northeast 270 311 5,600 -1,750 Descending Vancouver Center
Mon 09:24:59 PM 48.4500 -123.3500 34° Northeast 260 299 4,000 -800 Descending Vancouver Center
Mon 09:25:59 PM 48.4833 -123.3000 45° Northeast 230 265 4,000 -500 Level Vancouver Center
Mon 09:26:59 PM 48.5333 -123.2167 48° Northeast 210 242 3,000 -1,000 Descending Vancouver Center
Mon 09:27:59 PM 48.5833 -123.2167 360° North 200 230 2,000 -550 Descending Vancouver Center
Mon 09:28:59 PM 48.6000 -123.2667 297° West 190 219 1,900 -450 Descending Vancouver Center
Mon 09:29:59 PM 48.6167 -123.3500 287° West 150 173 1,100 -700 Descending Vancouver Center
Mon 09:30:59 PM 48.6167 -123.4000 270° West 120 138 500 -500 Descending Vancouver Center
Mon 09:31:59 PM 48.6333 -123.4167 327° Northwest 120 138 100 -400 Descending Vancouver Center

Login

Don't have an account? Register now (free) for customized features, flight alerts, and more!